Artesia Wells, Texas
Current Conditions -  °F | °C
As of 1:53 PM on Friday 24 Oct 2014 (Local Time) from KCOT Reporting Station
Clear Clear  
Wind Chill: 86°   Ceiling: Unl
Heat Index: 86°   Visibility: 10mi
Dew Point: 59°   Wind: 6mph
Humidity: 40%   Direction: 190°S
Pressure: 30.12"   Gusts: NA
Location:  28.28°N, 99.29°W
Report Text: KCOT 241853Z AUTO 19005KT 10SM CLR 30/15 A3012 RMK AO2 SLP193 T03000150
Loading
Personal Weather Stations






























Interactive Weather Map New forecast layout! Learn more

10-Day Weather Forecast

Advertisements
Track Severe Weather on mobile